Time;durP1;ratioP1;P1;durP2;ratioP2;P2;SDS_P1;SDS_P2;PMS_P1;PMS_P2;Temp;Humidity;BMP_temperature;BMP_pressure;BME280_temperature;BME280_humidity;BME280_pressure;Samples;Min_cycle;Max_cycle;Signal;HPM_P1;HPM_P2
2022/01/26 00:07:08;;;;;;;75.45;57.45;;;;;;;;;;5021995;28;20041;-83
2022/01/26 00:09:33;;;;;;;76.90;57.17;;;;;;;;;;5011841;28;20026;-84
2022/01/26 00:11:58;;;;;;;73.57;57.40;;;;;;;;;;5010358;28;20014;-80
2022/01/26 00:14:23;;;;;;;76.07;55.87;;;;;;;;;;5010019;28;20048;-81
2022/01/26 00:16:50;;;;;;;72.10;56.73;;;;;;;;;;5016874;28;20029;-80
2022/01/26 00:19:20;;;;;;;;;;;;;;;;;;5023000;28;20017;-81
2022/01/26 00:21:51;;;;;;;70.32;56.92;;;;;;;;;;5006399;28;19894;-82
2022/01/26 00:29:19;;;;;;;72.75;56.55;;;;;;;;;;5036357;28;20026;-80
2022/01/26 00:41:03;;;;;;;74.50;56.75;;;;;;;;;;5024632;28;20021;-82
2022/01/26 00:43:13;;;;;;;67.72;55.67;;;;;;;;;;5014435;28;20030;-81
2022/01/26 00:45:38;;;;;;;92.53;60.88;;;;;;;;;;5050005;23;20053;-85
2022/01/26 00:48:06;;;;;;;68.67;56.13;;;;;;;;;;5025553;28;20041;-85
2022/01/26 00:50:36;;;;;;;63.30;54.95;;;;;;;;;;5002280;28;20049;-85
2022/01/26 00:53:01;;;;;;;71.13;55.85;;;;;;;;;;5019763;28;20018;-85
2022/01/26 00:55:27;;;;;;;65.97;54.43;;;;;;;;;;5022021;28;20082;-86
2022/01/26 00:57:52;;;;;;;64.80;54.27;;;;;;;;;;5026051;28;20098;-86
2022/01/26 01:00:17;;;;;;;82.07;57.43;;;;;;;;;;5021407;23;20446;-80
2022/01/26 01:02:42;;;;;;;82.50;57.77;;;;;;;;;;5003062;28;20023;-80
2022/01/26 01:05:16;;;;;;;67.00;57.07;;;;;;;;;;4995059;28;20475;-82
2022/01/26 01:07:43;;;;;;;67.32;55.65;;;;;;;;;;4992898;28;20084;-80
2022/01/26 01:10:09;;;;;;;70.93;55.25;;;;;;;;;;4995113;28;20015;-79
2022/01/26 01:12:40;;;;;;;77.67;57.43;;;;;;;;;;4994941;28;20022;-78
2022/01/26 01:15:06;;;;;;;73.85;56.13;;;;;;;;;;4994147;28;20026;-80
2022/01/26 01:17:37;;;;;;;71.90;55.37;;;;;;;;;;4991465;28;20049;-79
2022/01/26 01:21:08;;;;;;;71.72;55.90;;;;;;;;;;4992762;28;20110;-79
2022/01/26 01:23:30;;;;;;;75.70;57.08;;;;;;;;;;4990536;28;20042;-77
2022/01/26 01:28:27;;;;;;;69.85;55.10;;;;;;;;;;4992729;28;20054;-79
2022/01/26 01:30:58;;;;;;;66.28;55.08;;;;;;;;;;4993510;28;20033;-78
2022/01/26 01:33:30;;;;;;;76.15;56.22;;;;;;;;;;4992938;28;20390;-78
2022/01/26 01:35:58;;;;;;;79.70;58.28;;;;;;;;;;4992953;28;20117;-78
2022/01/26 01:38:26;;;;;;;68.72;56.92;;;;;;;;;;4991690;28;20415;-79
2022/01/26 01:40:51;;;;;;;66.28;55.25;;;;;;;;;;4994769;28;20014;-79
2022/01/26 01:43:18;;;;;;;73.80;56.90;;;;;;;;;;4992929;28;20049;-79
2022/01/26 01:45:47;;;;;;;65.75;55.83;;;;;;;;;;4995260;28;20061;-80
2022/01/26 01:48:15;;;;;;;75.90;59.75;;;;;;;;;;4993847;28;20023;-79
2022/01/26 01:50:42;;;;;;;76.05;58.15;;;;;;;;;;5000456;28;20403;-79
2022/01/26 01:53:08;;;;;;;77.70;57.00;;;;;;;;;;4999901;28;20022;-78
2022/01/26 01:55:33;;;;;;;82.22;57.03;;;;;;;;;;4997063;28;20018;-77
2022/01/26 01:57:59;;;;;;;71.90;57.07;;;;;;;;;;4994848;28;20049;-77
2022/01/26 02:00:24;;;;;;;72.90;55.38;;;;;;;;;;4997659;28;20507;-77
2022/01/26 02:02:50;;;;;;;83.88;57.40;;;;;;;;;;4999689;28;20030;-79
2022/01/26 02:05:15;;;;;;;83.60;59.07;;;;;;;;;;4994703;28;20041;-80
2022/01/26 02:07:40;;;;;;;76.47;58.47;;;;;;;;;;4991387;28;20026;-78
2022/01/26 02:10:06;;;;;;;74.47;57.13;;;;;;;;;;4995175;28;20372;-80
2022/01/26 02:12:33;;;;;;;77.40;58.10;;;;;;;;;;4993077;28;20160;-79
2022/01/26 02:15:07;;;;;;;74.53;56.40;;;;;;;;;;4995117;28;20029;-80
2022/01/26 02:18:29;;;;;;;75.93;58.53;;;;;;;;;;4990598;28;20033;-79
2022/01/26 02:53:16;;;;;;;83.38;59.40;;;;;;;;;;4975128;28;20058;-79
2022/01/26 02:55:45;;;;;;;77.65;57.25;;;;;;;;;;4992100;28;20022;-79
2022/01/26 02:58:45;;;;;;;76.30;57.58;;;;;;;;;;4991458;28;20404;-80
2022/01/26 03:06:37;;;;;;;78.18;59.25;;;;;;;;;;4996252;28;20043;-77
2022/01/26 03:09:09;;;;;;;69.32;57.67;;;;;;;;;;5000795;28;20022;-79
2022/01/26 03:11:37;;;;;;;78.90;59.10;;;;;;;;;;4992902;28;20113;-79
2022/01/26 03:14:35;;;;;;;70.80;57.35;;;;;;;;;;4994284;28;20488;-79
2022/01/26 03:16:54;;;;;;;76.78;58.45;;;;;;;;;;4992335;28;20049;-78
2022/01/26 03:19:33;;;;;;;78.78;58.78;;;;;;;;;;4994763;28;20488;-79
2022/01/26 03:28:15;;;;;;;86.22;60.22;;;;;;;;;;4998929;28;20022;-81
2022/01/26 03:30:30;;;;;;;73.60;57.95;;;;;;;;;;4993612;28;20472;-80
2022/01/26 03:35:48;;;;;;;78.55;58.47;;;;;;;;;;4995111;28;20033;-80
2022/01/26 03:38:20;;;;;;;93.07;60.05;;;;;;;;;;4995001;28;20030;-80
2022/01/26 03:40:46;;;;;;;86.95;59.90;;;;;;;;;;4997208;28;20022;-79
2022/01/26 03:43:12;;;;;;;82.30;58.67;;;;;;;;;;4995861;28;20022;-78
2022/01/26 03:45:37;;;;;;;83.37;59.57;;;;;;;;;;4997364;28;20093;-79
2022/01/26 03:48:02;;;;;;;85.07;62.30;;;;;;;;;;5000109;28;20041;-79
2022/01/26 03:50:27;;;;;;;88.40;61.73;;;;;;;;;;5001660;28;20072;-78
2022/01/26 03:52:53;;;;;;;84.00;60.47;;;;;;;;;;5000936;28;20022;-79
2022/01/26 03:55:18;;;;;;;80.03;58.93;;;;;;;;;;4997120;28;20102;-80
2022/01/26 03:57:43;;;;;;;86.43;59.10;;;;;;;;;;4992739;28;20041;-79
2022/01/26 04:00:09;;;;;;;86.97;60.77;;;;;;;;;;4998559;28;20029;-78
2022/01/26 04:02:34;;;;;;;90.00;62.33;;;;;;;;;;4995269;28;20022;-80
2022/01/26 04:05:03;;;;;;;84.43;60.13;;;;;;;;;;4996309;28;20468;-78
2022/01/26 04:07:29;;;;;;;85.43;59.85;;;;;;;;;;4993028;28;20044;-77
2022/01/26 04:10:01;;;;;;;84.73;60.07;;;;;;;;;;4996416;28;20089;-79
2022/01/26 04:12:27;;;;;;;83.05;60.63;;;;;;;;;;4996086;28;20049;-78
2022/01/26 04:14:58;;;;;;;81.50;58.83;;;;;;;;;;4994130;28;20484;-79
2022/01/26 04:17:23;;;;;;;80.15;58.00;;;;;;;;;;4993612;28;20022;-78
2022/01/26 04:19:54;;;;;;;77.90;58.67;;;;;;;;;;4988322;28;20026;-79
2022/01/26 04:22:27;;;;;;;81.70;59.30;;;;;;;;;;4995201;28;20030;-79
2022/01/26 04:24:54;;;;;;;95.53;60.55;;;;;;;;;;4995403;28;20022;-79
2022/01/26 04:27:33;;;;;;;83.40;58.65;;;;;;;;;;4994189;28;20022;-79
2022/01/26 04:29:58;;;;;;;80.93;58.95;;;;;;;;;;4995507;28;20045;-78
2022/01/26 04:32:24;;;;;;;78.70;57.30;;;;;;;;;;4993630;28;20058;-78
2022/01/26 04:34:49;;;;;;;74.33;57.63;;;;;;;;;;4994552;28;20117;-79
2022/01/26 04:37:31;;;;;;;85.27;59.40;;;;;;;;;;4992908;28;20260;-78
2022/01/26 04:40:08;;;;;;;79.72;59.28;;;;;;;;;;4994727;28;20399;-78
2022/01/26 04:42:59;;;;;;;78.38;58.78;;;;;;;;;;4995490;28;20014;-77
2022/01/26 04:45:24;;;;;;;70.38;56.60;;;;;;;;;;4995347;28;20046;-79
2022/01/26 04:47:49;;;;;;;80.63;58.73;;;;;;;;;;4993737;28;20034;-79
2022/01/26 04:50:15;;;;;;;75.53;57.70;;;;;;;;;;4995103;28;20054;-80
2022/01/26 04:52:40;;;;;;;71.93;56.10;;;;;;;;;;4980128;28;20033;-78
2022/01/26 04:55:06;;;;;;;71.53;56.00;;;;;;;;;;4993239;28;20022;-79
2022/01/26 04:57:31;;;;;;;79.60;58.58;;;;;;;;;;4985694;28;20038;-79
2022/01/26 04:59:57;;;;;;;64.93;55.58;;;;;;;;;;4994703;28;20060;-78
2022/01/26 05:02:22;;;;;;;78.10;56.03;;;;;;;;;;4998194;28;20110;-82
2022/01/26 05:04:47;;;;;;;69.27;55.83;;;;;;;;;;4998863;28;20110;-78
2022/01/26 05:07:12;;;;;;;77.33;57.30;;;;;;;;;;5003219;28;20018;-79
2022/01/26 05:09:39;;;;;;;68.73;55.13;;;;;;;;;;4999497;28;20011;-80
2022/01/26 05:12:04;;;;;;;72.20;56.33;;;;;;;;;;5005267;28;20014;-80
2022/01/26 05:14:29;;;;;;;68.57;54.90;;;;;;;;;;5004322;28;20130;-78
2022/01/26 05:16:55;;;;;;;69.03;56.00;;;;;;;;;;5014927;28;20015;-79
2022/01/26 05:19:20;;;;;;;69.50;54.23;;;;;;;;;;5018479;28;20069;-78
2022/01/26 05:21:45;;;;;;;65.60;54.57;;;;;;;;;;5007391;28;20062;-78
2022/01/26 05:24:11;;;;;;;60.37;53.73;;;;;;;;;;4998629;28;20003;-82
2022/01/26 05:26:37;;;;;;;69.77;55.53;;;;;;;;;;5012110;28;20035;-79
2022/01/26 05:29:03;;;;;;;71.78;55.42;;;;;;;;;;5016115;28;20049;-78
2022/01/26 05:31:28;;;;;;;70.10;55.80;;;;;;;;;;5017022;28;20002;-80
2022/01/26 05:33:54;;;;;;;66.67;55.83;;;;;;;;;;5016442;28;20038;-79
2022/01/26 05:36:19;;;;;;;79.70;57.83;;;;;;;;;;5006866;28;20061;-79
2022/01/26 05:38:44;;;;;;;71.63;56.60;;;;;;;;;;5015297;28;20042;-79
2022/01/26 05:41:10;;;;;;;71.00;56.00;;;;;;;;;;5013409;28;20038;-79
2022/01/26 05:43:35;;;;;;;71.73;56.00;;;;;;;;;;5003377;28;20022;-80
2022/01/26 05:46:06;;;;;;;73.77;56.80;;;;;;;;;;4993400;28;20033;-77
2022/01/26 05:48:31;;;;;;;67.85;55.85;;;;;;;;;;4995722;28;20034;-77
2022/01/26 05:51:05;;;;;;;79.07;56.17;;;;;;;;;;4988768;28;20054;-77
2022/01/26 05:53:31;;;;;;;71.13;58.65;;;;;;;;;;4996412;28;20041;-78
2022/01/26 05:55:57;;;;;;;77.45;58.92;;;;;;;;;;4991761;28;20029;-77
2022/01/26 05:58:22;;;;;;;68.25;56.20;;;;;;;;;;4987491;28;20474;-78
2022/01/26 06:00:48;;;;;;;77.77;57.50;;;;;;;;;;4992214;28;20026;-79
2022/01/26 06:03:13;;;;;;;69.65;54.97;;;;;;;;;;4992776;28;20404;-77
2022/01/26 06:05:39;;;;;;;70.37;55.53;;;;;;;;;;4993460;28;20023;-78
2022/01/26 06:08:04;;;;;;;82.07;57.90;;;;;;;;;;4983177;28;20019;-78
2022/01/26 06:10:29;;;;;;;72.20;56.00;;;;;;;;;;4990675;28;20455;-79
2022/01/26 06:12:54;;;;;;;88.13;59.10;;;;;;;;;;4990716;28;20555;-80
2022/01/26 06:15:20;;;;;;;71.20;57.83;;;;;;;;;;4990661;28;20172;-79
2022/01/26 06:17:45;;;;;;;76.00;57.77;;;;;;;;;;4993036;28;20487;-80
2022/01/26 06:20:10;;;;;;;82.37;57.10;;;;;;;;;;4993573;28;20029;-79
2022/01/26 06:22:36;;;;;;;81.93;59.20;;;;;;;;;;4992973;28;20018;-78
2022/01/26 06:25:05;;;;;;;73.82;56.97;;;;;;;;;;4990253;28;20033;-79
2022/01/26 06:27:31;;;;;;;74.68;57.33;;;;;;;;;;4992899;28;20030;-80
2022/01/26 06:29:56;;;;;;;68.93;55.63;;;;;;;;;;4993738;28;20028;-78
2022/01/26 06:32:22;;;;;;;73.37;56.87;;;;;;;;;;4993723;28;20018;-79
2022/01/26 06:34:47;;;;;;;75.23;57.90;;;;;;;;;;4993124;28;20044;-80
2022/01/26 06:37:14;;;;;;;76.10;57.43;;;;;;;;;;4992692;28;20023;-79
2022/01/26 06:39:39;;;;;;;80.28;57.22;;;;;;;;;;4988929;28;20030;-79
2022/01/26 06:42:11;;;;;;;78.57;58.07;;;;;;;;;;4992195;28;20078;-79
2022/01/26 06:44:46;;;;;;;79.53;59.40;;;;;;;;;;4992005;28;20019;-78
2022/01/26 06:49:37;;;;;;;71.73;56.43;;;;;;;;;;4992918;28;20022;-79
2022/01/26 07:02:14;;;;;;;71.35;57.28;;;;;;;;;;5024255;28;20657;-84
2022/01/26 07:04:39;;;;;;;73.07;55.03;;;;;;;;;;5011473;28;20037;-85
2022/01/26 07:07:05;;;;;;;69.23;56.47;;;;;;;;;;5018858;28;20043;-83
2022/01/26 07:09:30;;;;;;;78.47;57.17;;;;;;;;;;5015919;28;20017;-85
2022/01/26 07:11:55;;;;;;;80.97;56.90;;;;;;;;;;5015025;28;20030;-82
2022/01/26 07:20:18;;;;;;;73.63;57.65;;;;;;;;;;5018335;28;20032;-81
2022/01/26 07:22:40;;;;;;;80.43;58.60;;;;;;;;;;5017609;28;20068;-81
2022/01/26 07:25:05;;;;;;;79.70;56.90;;;;;;;;;;5010557;28;20014;-80
2022/01/26 07:27:31;;;;;;;73.57;56.43;;;;;;;;;;5013355;28;20243;-80
2022/01/26 07:29:56;;;;;;;78.13;57.27;;;;;;;;;;5012672;28;20037;-81
2022/01/26 07:32:24;;;;;;;76.63;56.72;;;;;;;;;;5006304;28;20017;-81
2022/01/26 07:34:49;;;;;;;69.00;55.80;;;;;;;;;;5013069;28;20085;-80
2022/01/26 07:37:16;;;;;;;70.67;55.63;;;;;;;;;;5011166;28;20060;-81
2022/01/26 07:39:44;;;;;;;77.45;56.75;;;;;;;;;;5003350;28;20109;-83
2022/01/26 07:42:10;;;;;;;73.43;56.35;;;;;;;;;;5006424;28;20030;-84
2022/01/26 07:44:36;;;;;;;73.97;56.70;;;;;;;;;;5005380;28;20096;-83
2022/01/26 07:47:01;;;;;;;68.37;55.10;;;;;;;;;;5021886;28;20022;-80
2022/01/26 07:49:26;;;;;;;67.70;54.03;;;;;;;;;;5004931;28;20048;-82
2022/01/26 07:51:52;;;;;;;79.00;57.00;;;;;;;;;;5002914;28;20022;-83
2022/01/26 07:54:18;;;;;;;66.43;55.40;;;;;;;;;;5004388;28;20113;-82
2022/01/26 07:56:45;;;;;;;;;;;;;;;;;;5007494;28;20052;-84
2022/01/26 07:59:11;;;;;;;73.63;57.40;;;;;;;;;;5005878;28;19988;-81
2022/01/26 08:01:36;;;;;;;75.80;57.50;;;;;;;;;;5020311;28;20325;-83
2022/01/26 08:04:01;;;;;;;70.63;56.27;;;;;;;;;;5005112;28;20021;-82
2022/01/26 08:06:26;;;;;;;82.27;58.47;;;;;;;;;;5004277;28;20025;-82
2022/01/26 08:08:52;;;;;;;71.03;56.43;;;;;;;;;;5003605;28;20022;-80
2022/01/26 08:11:17;;;;;;;76.63;57.60;;;;;;;;;;5021252;28;20026;-82
2022/01/26 08:13:42;;;;;;;73.93;57.20;;;;;;;;;;5004881;28;20044;-80
2022/01/26 08:16:07;;;;;;;77.13;58.13;;;;;;;;;;5004981;28;20025;-81
2022/01/26 08:18:32;;;;;;;75.23;57.30;;;;;;;;;;5022588;28;20022;-82
2022/01/26 08:21:04;;;;;;;83.03;58.03;;;;;;;;;;5005103;28;20103;-80
2022/01/26 08:23:29;;;;;;;74.15;57.25;;;;;;;;;;5006720;28;20576;-83
2022/01/26 08:25:55;;;;;;;76.93;56.57;;;;;;;;;;5007710;28;20024;-81
2022/01/26 08:28:26;;;;;;;76.03;58.10;;;;;;;;;;5016785;28;20085;-81
2022/01/26 08:30:51;;;;;;;81.25;57.75;;;;;;;;;;5006991;28;20090;-81
2022/01/26 08:33:17;;;;;;;79.17;57.07;;;;;;;;;;5008205;28;20518;-82
2022/01/26 08:35:42;;;;;;;72.37;55.87;;;;;;;;;;5005085;28;20487;-80
2022/01/26 08:38:07;;;;;;;74.30;56.83;;;;;;;;;;5023157;28;20052;-82
2022/01/26 08:40:33;;;;;;;77.67;58.50;;;;;;;;;;5005125;28;20472;-83
2022/01/26 08:42:58;;;;;;;74.70;58.15;;;;;;;;;;5003941;28;20022;-83
2022/01/26 08:45:24;;;;;;;73.83;57.43;;;;;;;;;;5005691;28;20022;-82
2022/01/26 08:47:49;;;;;;;76.18;58.20;;;;;;;;;;5006157;28;20029;-82
2022/01/26 08:50:15;;;;;;;69.80;55.90;;;;;;;;;;5007818;28;20025;-81
2022/01/26 08:52:40;;;;;;;87.70;59.77;;;;;;;;;;5003942;28;20018;-82
2022/01/26 08:55:06;;;;;;;79.70;57.73;;;;;;;;;;5005250;28;20017;-82
2022/01/26 08:57:32;;;;;;;75.82;57.92;;;;;;;;;;5006293;28;20021;-83
2022/01/26 08:59:58;;;;;;;67.97;56.50;;;;;;;;;;5006040;28;20048;-82
2022/01/26 09:02:24;;;;;;;74.88;57.97;;;;;;;;;;5003087;28;20487;-81
2022/01/26 09:04:49;;;;;;;73.73;56.97;;;;;;;;;;5004637;28;20026;-82
2022/01/26 09:07:15;;;;;;;86.87;57.60;;;;;;;;;;5006095;28;20025;-81
2022/01/26 09:09:45;;;;;;;80.57;57.33;;;;;;;;;;5005861;28;20062;-80
2022/01/26 09:12:17;;;;;;;75.85;58.42;;;;;;;;;;5002444;28;20749;-81
2022/01/26 09:14:42;;;;;;;78.43;57.85;;;;;;;;;;5008261;28;20026;-83
2022/01/26 09:17:08;;;;;;;76.80;58.40;;;;;;;;;;5013417;28;20018;-80
2022/01/26 09:19:33;;;;;;;78.20;58.22;;;;;;;;;;5017849;28;20038;-81
2022/01/26 09:22:04;;;;;;;81.15;60.30;;;;;;;;;;5014884;28;20003;-81
2022/01/26 09:24:32;;;;;;;77.13;59.15;;;;;;;;;;5013172;28;20097;-82
2022/01/26 09:26:57;;;;;;;84.65;58.70;;;;;;;;;;5022514;28;20074;-81
2022/01/26 09:29:23;;;;;;;73.30;57.50;;;;;;;;;;5039362;28;20022;-81
2022/01/26 09:31:48;;;;;;;80.97;57.20;;;;;;;;;;5020071;28;20018;-80
2022/01/26 09:34:17;;;;;;;84.20;58.10;;;;;;;;;;5028840;28;20021;-81
2022/01/26 09:36:43;;;;;;;82.70;59.03;;;;;;;;;;5011985;28;20034;-81
2022/01/26 09:39:08;;;;;;;81.20;58.17;;;;;;;;;;5017268;28;20061;-82
2022/01/26 09:41:34;;;;;;;76.87;58.33;;;;;;;;;;5023812;28;20056;-85
2022/01/26 09:44:02;;;;;;;84.95;59.75;;;;;;;;;;5023630;28;20022;-82
2022/01/26 09:46:28;;;;;;;85.85;58.80;;;;;;;;;;5019217;28;20026;-82
2022/01/26 09:48:54;;;;;;;83.40;57.50;;;;;;;;;;5005496;28;20113;-81
2022/01/26 09:51:20;;;;;;;95.63;62.73;;;;;;;;;;5022096;28;20037;-80
2022/01/26 09:53:45;;;;;;;85.35;59.90;;;;;;;;;;5004912;28;20099;-82
2022/01/26 09:56:10;;;;;;;82.37;57.77;;;;;;;;;;5007494;28;20422;-87
2022/01/26 09:58:36;;;;;;;85.93;59.73;;;;;;;;;;5008337;28;20094;-82
2022/01/26 10:01:03;;;;;;;88.70;60.00;;;;;;;;;;5014106;28;20041;-81
2022/01/26 10:03:34;;;;;;;78.55;57.70;;;;;;;;;;5019168;28;20033;-82
2022/01/26 10:05:59;;;;;;;86.05;61.28;;;;;;;;;;5020031;28;20016;-82
2022/01/26 10:19:09;;;;;;;80.57;59.17;;;;;;;;;;5048540;28;20025;-82
2022/01/26 10:21:53;;;;;;;89.82;61.13;;;;;;;;;;5033270;28;20018;-81
2022/01/26 10:24:20;;;;;;;87.10;59.42;;;;;;;;;;5004837;28;20033;-81
2022/01/26 10:26:49;;;;;;;87.18;60.50;;;;;;;;;;5009099;28;20014;-80
2022/01/26 10:29:15;;;;;;;83.13;61.03;;;;;;;;;;5012759;28;20030;-81
2022/01/26 10:31:41;;;;;;;84.32;59.38;;;;;;;;;;5011923;28;20018;-82
2022/01/26 10:34:22;;;;;;;73.23;57.87;;;;;;;;;;5026085;28;20045;-82
2022/01/26 10:36:50;;;;;;;88.05;59.05;;;;;;;;;;5004544;28;20028;-82
2022/01/26 10:39:24;;;;;;;87.25;60.78;;;;;;;;;;5005397;28;20025;-81
2022/01/26 10:41:52;;;;;;;82.93;58.03;;;;;;;;;;5001416;28;20151;-81
2022/01/26 10:44:25;;;;;;;89.68;61.22;;;;;;;;;;5004674;28;20026;-80
2022/01/26 10:46:51;;;;;;;83.70;58.72;;;;;;;;;;5004559;28;20029;-81
2022/01/26 10:49:29;;;;;;;84.40;59.15;;;;;;;;;;5003840;28;20145;-81
2022/01/26 10:51:59;;;;;;;89.40;60.42;;;;;;;;;;5000842;28;20081;-84
2022/01/26 10:57:00;;;;;;;82.22;58.92;;;;;;;;;;5021576;28;20026;-83
2022/01/26 10:59:25;;;;;;;85.88;60.25;;;;;;;;;;5004574;28;20025;-83
2022/01/26 11:01:51;;;;;;;98.67;62.97;;;;;;;;;;5003971;28;20026;-81
2022/01/26 11:04:16;;;;;;;84.53;59.77;;;;;;;;;;5011479;28;20041;-83
2022/01/26 11:06:43;;;;;;;90.97;58.43;;;;;;;;;;5011626;28;20006;-82
2022/01/26 11:09:13;;;;;;;85.00;60.22;;;;;;;;;;5012275;28;20022;-82
2022/01/26 11:11:41;;;;;;;93.95;63.03;;;;;;;;;;5003073;28;20026;-81
2022/01/26 11:14:14;;;;;;;84.95;59.20;;;;;;;;;;5009035;28;20013;-82
2022/01/26 11:16:47;;;;;;;75.43;57.63;;;;;;;;;;5003798;28;20011;-82
2022/01/26 11:19:13;;;;;;;90.75;57.65;;;;;;;;;;5013035;28;20027;-82
2022/01/26 11:21:39;;;;;;;84.80;61.00;;;;;;;;;;5014169;28;20038;-81
2022/01/26 11:24:06;;;;;;;84.13;58.88;;;;;;;;;;5010882;28;20031;-81
2022/01/26 11:26:32;;;;;;;94.65;60.67;;;;;;;;;;5012727;28;20049;-82
2022/01/26 11:28:57;;;;;;;94.97;59.10;;;;;;;;;;5007474;28;20045;-82
2022/01/26 11:31:24;;;;;;;89.38;59.80;;;;;;;;;;4999057;28;20022;-82
2022/01/26 11:33:49;;;;;;;89.07;60.22;;;;;;;;;;5001370;28;20028;-82
2022/01/26 11:36:17;;;;;;;92.47;62.57;;;;;;;;;;5001404;28;20026;-81
2022/01/26 11:47:02;;;;;;;96.65;62.80;;;;;;;;;;5022095;28;20037;-81
2022/01/26 11:49:35;;;;;;;107.95;63.42;;;;;;;;;;5011707;28;20076;-81
2022/01/26 11:52:01;;;;;;;92.13;59.92;;;;;;;;;;5008832;28;20026;-80
2022/01/26 11:54:28;;;;;;;97.43;63.13;;;;;;;;;;5007431;28;20036;-81
2022/01/26 11:57:03;;;;;;;90.53;62.00;;;;;;;;;;5000752;28;20104;-81
2022/01/26 11:59:32;;;;;;;93.13;59.20;;;;;;;;;;5017994;28;20048;-81
2022/01/26 12:02:04;;;;;;;93.38;59.60;;;;;;;;;;5001707;28;20399;-81
2022/01/26 12:04:35;;;;;;;93.50;61.67;;;;;;;;;;5006640;28;20427;-81
2022/01/26 12:07:20;;;;;;;96.97;62.58;;;;;;;;;;4997536;28;20017;-81
2022/01/26 12:09:45;;;;;;;96.43;61.60;;;;;;;;;;5015427;28;20030;-81
2022/01/26 12:12:20;;;;;;;90.97;59.73;;;;;;;;;;5005727;28;20032;-81
2022/01/26 12:15:07;;;;;;;97.68;62.25;;;;;;;;;;5008319;28;20026;-80
2022/01/26 12:17:38;;;;;;;95.00;62.35;;;;;;;;;;5005187;28;20049;-81
2022/01/26 12:32:06;;;;;;;95.28;61.65;;;;;;;;;;5009565;28;20036;-81
2022/01/26 12:42:54;;;;;;;94.85;62.30;;;;;;;;;;5017299;28;20028;-81
2022/01/26 12:45:27;;;;;;;112.75;65.43;;;;;;;;;;5001124;28;20036;-82
2022/01/26 12:47:54;;;;;;;99.70;63.05;;;;;;;;;;5002269;28;20021;-82
2022/01/26 12:50:19;;;;;;;90.55;62.28;;;;;;;;;;5003363;28;20026;-82
2022/01/26 12:52:49;;;;;;;106.10;64.90;;;;;;;;;;5024004;23;20072;-79
2022/01/26 12:55:25;;;;;;;111.97;66.53;;;;;;;;;;5039463;28;20060;-78
2022/01/26 12:57:50;;;;;;;103.55;62.97;;;;;;;;;;5001903;28;20373;-79
2022/01/26 13:00:16;;;;;;;96.73;61.23;;;;;;;;;;5008236;28;20022;-79
2022/01/26 13:02:42;;;;;;;120.15;67.68;;;;;;;;;;5036975;28;20025;-79
2022/01/26 13:05:08;;;;;;;100.93;63.53;;;;;;;;;;5022427;28;20021;-79
2022/01/26 13:07:33;;;;;;;100.72;61.03;;;;;;;;;;5025025;28;20025;-78
2022/01/26 13:09:58;;;;;;;104.60;64.00;;;;;;;;;;5032165;28;20026;-78
2022/01/26 13:12:31;;;;;;;95.30;62.83;;;;;;;;;;5043532;28;20033;-80
2022/01/26 13:15:05;;;;;;;97.10;62.17;;;;;;;;;;5030387;28;20021;-78
2022/01/26 13:17:38;;;;;;;98.68;61.97;;;;;;;;;;5045826;28;20017;-79
2022/01/26 13:25:40;;;;;;;106.35;64.05;;;;;;;;;;5011146;28;20067;-79
2022/01/26 13:28:25;;;;;;;98.75;62.97;;;;;;;;;;5047459;28;20024;-79
2022/01/26 13:41:32;;;;;;;95.28;59.92;;;;;;;;;;5038167;28;20356;-80
2022/01/26 13:49:31;;;;;;;96.00;61.92;;;;;;;;;;5040350;28;20021;-80
2022/01/26 13:54:42;;;;;;;99.23;62.97;;;;;;;;;;5033146;28;20030;-77
2022/01/26 13:59:43;;;;;;;103.30;65.20;;;;;;;;;;5044943;28;20029;-81
2022/01/26 14:02:09;;;;;;;100.63;62.17;;;;;;;;;;5020921;28;20491;-81
2022/01/26 14:04:34;;;;;;;110.37;63.77;;;;;;;;;;5019635;28;20020;-82
2022/01/26 14:07:00;;;;;;;95.30;59.93;;;;;;;;;;5028801;28;20065;-81
2022/01/26 14:09:25;;;;;;;97.23;62.17;;;;;;;;;;5027961;28;20024;-79
2022/01/26 14:11:50;;;;;;;117.00;67.03;;;;;;;;;;5015892;28;20515;-78
2022/01/26 14:14:23;;;;;;;95.43;62.53;;;;;;;;;;5021217;28;20112;-80
2022/01/26 14:16:57;;;;;;;95.03;61.15;;;;;;;;;;5021962;28;20029;-80
2022/01/26 14:26:48;;;;;;;88.07;60.87;;;;;;;;;;5042488;28;20029;-79
2022/01/26 14:29:39;;;;;;;99.47;62.60;;;;;;;;;;5027616;28;20117;-79
2022/01/26 14:32:44;;;;;;;102.18;63.28;;;;;;;;;;5050346;28;20017;-80
2022/01/26 14:40:36;;;;;;;107.95;64.07;;;;;;;;;;5054637;28;20083;-79
2022/01/26 14:51:35;;;;;;;92.25;62.13;;;;;;;;;;5045455;28;20040;-78
2022/01/26 15:19:08;;;;;;;86.80;60.97;;;;;;;;;;5021670;28;20025;-78
2022/01/26 15:42:40;;;;;;;101.35;63.25;;;;;;;;;;5038754;28;20051;-80
2022/01/26 15:53:24;;;;;;;105.85;64.63;;;;;;;;;;5037435;28;20028;-78
2022/01/26 15:58:52;;;;;;;100.40;63.15;;;;;;;;;;5023332;28;20029;-79
2022/01/26 16:18:42;;;;;;;96.88;64.95;;;;;;;;;;5041037;28;20084;-80
2022/01/26 16:20:46;;;;;;;94.07;63.40;;;;;;;;;;5039947;28;20064;-80
2022/01/26 17:47:43;;;;;;;111.00;71.10;;;;;;;;;;5038552;28;20063;-81
2022/01/26 18:15:20;;;;;;;120.68;68.63;;;;;;;;;;4994854;28;20077;-81
2022/01/26 18:17:47;;;;;;;115.45;69.22;;;;;;;;;;5020598;28;20037;-79
2022/01/26 18:49:21;;;;;;;115.88;68.30;;;;;;;;;;5034015;28;20507;-76
2022/01/26 18:51:48;;;;;;;143.05;73.93;;;;;;;;;;5017581;28;20096;-77
2022/01/26 18:54:14;;;;;;;127.60;68.00;;;;;;;;;;5014381;28;20030;-78
2022/01/26 18:56:41;;;;;;;132.35;68.75;;;;;;;;;;5019028;28;20080;-77
2022/01/26 18:59:06;;;;;;;125.43;70.95;;;;;;;;;;5019063;28;20033;-78
2022/01/26 19:01:32;;;;;;;138.43;73.47;;;;;;;;;;5016248;28;20063;-77
2022/01/26 19:03:57;;;;;;;134.68;70.75;;;;;;;;;;5019257;28;20014;-78
2022/01/26 19:06:23;;;;;;;109.43;68.37;;;;;;;;;;5020237;28;20159;-79
2022/01/26 19:08:48;;;;;;;112.13;67.67;;;;;;;;;;5019414;28;20021;-79
2022/01/26 19:11:15;;;;;;;124.87;67.53;;;;;;;;;;5018653;28;20272;-78
2022/01/26 19:13:43;;;;;;;109.55;68.78;;;;;;;;;;5032363;28;20376;-78
2022/01/26 19:16:19;;;;;;;108.65;64.38;;;;;;;;;;5041751;28;20025;-77
2022/01/26 19:19:12;;;;;;;98.22;64.50;;;;;;;;;;5019783;28;20482;-79
2022/01/26 19:26:37;;;;;;;119.05;68.30;;;;;;;;;;5036359;28;20028;-77
2022/01/26 19:29:17;;;;;;;109.25;66.07;;;;;;;;;;5019282;28;20466;-78
2022/01/26 19:40:48;;;;;;;106.18;65.72;;;;;;;;;;5033040;28;20031;-77
2022/01/26 19:51:29;;;;;;;;;;;;;;;;;;;;;
2022/01/26 19:54:21;;;;;;;108.93;66.70;;;;;;;;;;5049378;28;20056;-84
2022/01/26 19:56:53;;;;;;;112.85;67.25;;;;;;;;;;5006246;28;20022;-83
2022/01/26 20:08:52;;;;;;;;;;;;;;;;;;;;;
2022/01/26 20:11:40;;;;;;;99.88;62.03;;;;;;;;;;5005083;28;20089;-83
2022/01/26 20:14:21;;;;;;;;;;;;;;;;;;;;;
2022/01/26 20:16:50;;;;;;;84.50;59.50;;;;;;;;;;5022278;28;19988;-83
2022/01/26 20:19:27;;;;;;;101.07;64.95;;;;;;;;;;5010221;28;20022;-84
2022/01/26 20:22:03;;;;;;;101.63;64.60;;;;;;;;;;4987425;28;20466;-83
2022/01/26 20:28:05;;;;;;;99.50;62.53;;;;;;;;;;5020005;28;20026;-83
2022/01/26 20:30:39;;;;;;;92.88;62.25;;;;;;;;;;5006705;28;20098;-84
2022/01/26 20:35:51;;;;;;;87.85;61.22;;;;;;;;;;5013015;28;20033;-85
2022/01/26 20:38:16;;;;;;;97.57;60.80;;;;;;;;;;4999047;28;20019;-86
2022/01/26 20:40:41;;;;;;;90.07;61.37;;;;;;;;;;5009939;28;20060;-85
2022/01/26 20:43:07;;;;;;;90.23;64.07;;;;;;;;;;5016487;28;20030;-86
2022/01/26 20:45:32;;;;;;;91.13;60.50;;;;;;;;;;5011045;28;20041;-85
2022/01/26 20:48:00;;;;;;;93.53;61.50;;;;;;;;;;5008612;28;20022;-84
2022/01/26 20:50:25;;;;;;;82.45;60.15;;;;;;;;;;5006184;28;20104;-85
2022/01/26 20:52:54;;;;;;;81.77;58.20;;;;;;;;;;5006645;28;20048;-85
2022/01/26 20:55:27;;;;;;;91.05;60.25;;;;;;;;;;5004566;28;20489;-84
2022/01/26 20:57:52;;;;;;;86.25;59.70;;;;;;;;;;5004388;28;20022;-85
2022/01/26 21:00:21;;;;;;;81.47;58.77;;;;;;;;;;5003462;28;20030;-86
2022/01/26 21:02:50;;;;;;;91.43;63.50;;;;;;;;;;5007505;28;20029;-85
2022/01/26 21:05:20;;;;;;;91.30;60.80;;;;;;;;;;5002400;28;20026;-85
2022/01/26 21:07:46;;;;;;;91.88;60.05;;;;;;;;;;5005374;28;20018;-85
2022/01/26 21:10:12;;;;;;;90.30;62.60;;;;;;;;;;5006345;28;20057;-86
2022/01/26 21:12:38;;;;;;;91.68;64.35;;;;;;;;;;5008809;28;20025;-86
2022/01/26 21:15:04;;;;;;;87.03;60.33;;;;;;;;;;5003774;28;20018;-85
2022/01/26 21:17:29;;;;;;;;;;;;;;;;;;5005645;28;20026;-86
2022/01/26 21:19:55;;;;;;;90.60;62.05;;;;;;;;;;5014926;28;19913;-85
2022/01/26 21:22:25;;;;;;;79.50;60.60;;;;;;;;;;5015141;28;20317;-84
2022/01/26 21:24:54;;;;;;;86.55;60.53;;;;;;;;;;5010332;28;20019;-84
2022/01/26 21:27:19;;;;;;;97.18;62.10;;;;;;;;;;5007470;28;20018;-86
2022/01/26 21:29:45;;;;;;;94.27;62.10;;;;;;;;;;5013953;28;20006;-85
2022/01/26 21:32:13;;;;;;;87.97;61.28;;;;;;;;;;5021286;28;20049;-85
2022/01/26 21:34:50;;;;;;;108.75;66.13;;;;;;;;;;5020632;28;20044;-85